createdAt,value
2023-04-15T00:00:38.720Z,4.53
2023-04-15T00:03:07.113Z,4.68
2023-04-15T00:05:34.277Z,4.60
2023-04-15T00:08:01.320Z,4.83
2023-04-15T00:10:28.410Z,4.47
2023-04-15T00:12:55.045Z,4.95
2023-04-15T00:15:22.354Z,4.20
2023-04-15T00:17:51.918Z,5.00
2023-04-15T00:20:18.756Z,4.37
2023-04-15T00:22:46.353Z,4.15
2023-04-15T00:25:12.945Z,4.25
2023-04-15T00:27:39.594Z,4.38
2023-04-15T00:30:07.089Z,4.53
2023-04-15T00:32:34.203Z,4.47
2023-04-15T00:35:00.968Z,4.72
2023-04-15T00:37:27.501Z,4.03
2023-04-15T00:39:54.124Z,4.78
2023-04-15T00:42:21.680Z,4.80
2023-04-15T00:44:48.675Z,4.30
2023-04-15T00:47:16.068Z,4.55
2023-04-15T00:49:42.929Z,4.28
2023-04-15T00:52:09.899Z,4.47
2023-04-15T00:54:37.540Z,4.22
2023-04-15T00:57:06.897Z,5.03
2023-04-15T00:59:34.502Z,4.88
2023-04-15T01:02:01.477Z,4.55
2023-04-15T01:04:28.245Z,4.45
2023-04-15T01:06:54.917Z,4.35
2023-04-15T01:09:21.564Z,4.57
2023-04-15T01:11:48.289Z,4.85
2023-04-15T01:14:15.143Z,4.78
2023-04-15T01:16:42.331Z,5.05
2023-04-15T01:19:11.240Z,5.03
2023-04-15T01:21:39.649Z,4.63
2023-04-15T01:24:10.267Z,4.65
2023-04-15T01:26:41.013Z,5.15
2023-04-15T01:29:08.383Z,4.63
2023-04-15T01:31:35.453Z,4.68
2023-04-15T01:34:02.109Z,4.63
2023-04-15T01:36:28.772Z,4.82
2023-04-15T01:38:57.096Z,5.15
2023-04-15T01:41:27.728Z,5.18
2023-04-15T01:43:55.070Z,5.03
2023-04-15T01:46:22.064Z,4.87
2023-04-15T01:48:48.735Z,4.50
2023-04-15T01:51:15.382Z,5.03
2023-04-15T01:53:42.008Z,5.05
2023-04-15T01:56:09.042Z,4.72
2023-04-15T01:58:35.807Z,4.53
2023-04-15T02:01:03.892Z,4.80
2023-04-15T02:03:30.602Z,4.28
2023-04-15T02:05:57.723Z,5.10
2023-04-15T02:08:24.424Z,4.88
2023-04-15T02:10:51.187Z,5.23
2023-04-15T02:13:17.792Z,4.85
2023-04-15T02:15:52.359Z,4.97
2023-04-15T02:18:19.050Z,5.20
2023-04-15T02:20:46.839Z,4.78
2023-04-15T02:23:13.681Z,4.70
2023-04-15T02:25:40.444Z,5.00
2023-04-15T02:28:07.181Z,5.05
2023-04-15T02:30:34.422Z,4.63
2023-04-15T02:33:01.931Z,4.55
2023-04-15T02:35:28.795Z,5.43
2023-04-15T02:37:55.721Z,4.65
2023-04-15T02:40:22.642Z,5.30
2023-04-15T02:42:49.287Z,4.78
2023-04-15T02:45:16.093Z,4.72
2023-04-15T02:47:43.305Z,4.17
2023-04-15T02:50:12.572Z,4.88
2023-04-15T02:52:43.253Z,4.82
2023-04-15T02:55:10.190Z,4.95
2023-04-15T02:57:38.874Z,4.75
2023-04-15T03:00:06.441Z,4.20
2023-04-15T03:02:38.137Z,4.70
2023-04-15T03:05:06.095Z,4.60
2023-04-15T03:07:32.902Z,4.43
2023-04-15T03:09:59.522Z,4.55
2023-04-15T03:12:26.161Z,4.60
2023-04-15T03:14:52.728Z,4.20
2023-04-15T03:17:19.419Z,5.05
2023-04-15T03:19:46.049Z,4.63
2023-04-15T03:22:12.722Z,5.13
2023-04-15T03:24:39.452Z,4.47
2023-04-15T03:27:07.950Z,4.85
2023-04-15T03:29:34.557Z,5.30
2023-04-15T03:32:01.724Z,5.20
2023-04-15T03:34:28.416Z,4.82
2023-04-15T03:36:56.176Z,5.23
2023-04-15T03:39:22.755Z,4.68
2023-04-15T03:41:49.463Z,5.40
2023-04-15T03:44:16.272Z,5.05
2023-04-15T03:46:43.083Z,5.05
2023-04-15T03:49:09.771Z,5.07
2023-04-15T03:51:36.839Z,4.90
2023-04-15T03:54:03.515Z,4.90
2023-04-15T03:56:30.544Z,5.78
2023-04-15T03:58:57.214Z,5.03
2023-04-15T04:01:23.823Z,5.20
2023-04-15T04:03:51.010Z,5.40
2023-04-15T04:06:17.785Z,5.60
2023-04-15T04:08:44.424Z,5.50
2023-04-15T04:11:11.103Z,5.13
2023-04-15T04:13:37.723Z,6.00
2023-04-15T04:16:04.824Z,5.40
2023-04-15T04:18:32.866Z,5.45
2023-04-15T04:20:59.939Z,5.53
2023-04-15T04:23:26.634Z,5.07
2023-04-15T04:25:53.471Z,5.77
2023-04-15T04:28:20.136Z,5.68
2023-04-15T04:30:46.877Z,5.68
2023-04-15T04:33:13.468Z,6.00
2023-04-15T04:35:40.061Z,5.50
2023-04-15T04:38:06.629Z,5.80
2023-04-15T04:40:33.304Z,5.82
2023-04-15T04:43:00.324Z,6.07
2023-04-15T04:45:27.139Z,5.88
2023-04-15T04:47:54.006Z,5.32
2023-04-15T04:50:21.051Z,5.77
2023-04-15T04:52:47.704Z,6.65
2023-04-15T04:55:14.335Z,5.57
2023-04-15T04:57:41.389Z,6.13
2023-04-15T05:00:08.946Z,6.20
2023-04-15T05:02:36.111Z,5.90
2023-04-15T05:05:02.941Z,6.03
2023-04-15T05:07:29.580Z,6.00
2023-04-15T05:09:56.543Z,6.18
2023-04-15T05:12:23.155Z,5.68
2023-04-15T05:14:49.759Z,6.33
2023-04-15T05:17:16.339Z,6.43
2023-04-15T05:19:42.976Z,6.10
2023-04-15T05:22:09.580Z,5.97
2023-04-15T05:24:36.349Z,6.03
2023-04-15T05:27:03.540Z,5.90
2023-04-15T05:29:30.645Z,6.47
2023-04-15T05:31:57.310Z,5.95
2023-04-15T05:34:23.985Z,6.53
2023-04-15T05:36:50.593Z,6.97
2023-04-15T05:39:17.235Z,6.87
2023-04-15T05:41:44.490Z,7.43
2023-04-15T05:44:11.167Z,6.85
2023-04-15T05:46:37.874Z,6.63
2023-04-15T05:49:04.545Z,6.53
2023-04-15T05:51:31.385Z,6.73
2023-04-15T05:53:58.008Z,6.82
2023-04-15T05:56:26.722Z,6.65
2023-04-15T05:58:53.918Z,6.60
2023-04-15T06:01:20.758Z,6.68
2023-04-15T06:03:47.527Z,6.87
2023-04-15T06:06:15.441Z,6.72
2023-04-15T06:08:42.043Z,6.75
2023-04-15T06:11:08.631Z,7.35
2023-04-15T06:13:35.250Z,7.13
2023-04-15T06:16:02.015Z,7.40
2023-04-15T06:18:28.611Z,7.00
2023-04-15T06:20:55.351Z,6.60
2023-04-15T06:23:22.034Z,7.25
2023-04-15T06:25:48.792Z,6.95
2023-04-15T06:28:15.564Z,7.13
2023-04-15T06:30:42.210Z,6.88
2023-04-15T06:33:10.541Z,7.10
2023-04-15T06:35:37.125Z,6.63
2023-04-15T06:38:03.713Z,7.28
2023-04-15T06:40:30.523Z,6.50
2023-04-15T06:42:57.094Z,7.43
2023-04-15T06:45:23.759Z,7.68
2023-04-15T06:47:50.441Z,7.72
2023-04-15T06:50:17.498Z,7.43
2023-04-15T06:52:44.262Z,7.20
2023-04-15T06:55:10.903Z,7.60
2023-04-15T06:57:37.465Z,7.43
2023-04-15T07:00:05.649Z,8.15
2023-04-15T07:02:32.408Z,7.55
2023-04-15T07:04:59.259Z,7.63
2023-04-15T07:07:26.403Z,7.85
2023-04-15T07:09:53.798Z,7.80
2023-04-15T07:12:20.811Z,7.45
2023-04-15T07:14:47.497Z,8.48
2023-04-15T07:17:14.199Z,7.67
2023-04-15T07:19:40.841Z,8.05
2023-04-15T07:22:07.716Z,7.82
2023-04-15T07:24:34.368Z,8.35
2023-04-15T07:27:01.741Z,8.90
2023-04-15T07:29:28.375Z,7.20
2023-04-15T07:31:56.968Z,7.85
2023-04-15T07:34:24.509Z,7.28
2023-04-15T07:36:51.915Z,6.75
2023-04-15T07:39:19.210Z,6.65
2023-04-15T07:41:46.479Z,6.17
2023-04-15T07:44:13.224Z,6.68
2023-04-15T07:46:39.940Z,6.40
2023-04-15T07:49:07.421Z,6.05
2023-04-15T07:51:34.127Z,5.60
2023-04-15T07:54:00.757Z,5.40
2023-04-15T07:56:27.818Z,5.60
2023-04-15T07:58:54.490Z,5.05
2023-04-15T08:01:21.538Z,5.55
2023-04-15T08:03:48.574Z,5.47
2023-04-15T08:06:15.318Z,5.60
2023-04-15T08:08:43.045Z,5.40
2023-04-15T08:11:09.721Z,5.20
2023-04-15T08:13:36.279Z,5.60
2023-04-15T08:16:19.800Z,5.28
2023-04-15T08:18:47.867Z,5.90
2023-04-15T08:21:14.923Z,4.95
2023-04-15T08:23:42.611Z,4.40
2023-04-15T08:26:09.329Z,4.95
2023-04-15T08:28:37.918Z,4.75
2023-04-15T08:31:05.887Z,4.63
2023-04-15T08:33:32.662Z,3.65
2023-04-15T08:35:59.356Z,3.40
2023-04-15T08:38:26.250Z,3.50
2023-04-15T08:40:53.036Z,3.33
2023-04-15T08:43:28.377Z,4.00
2023-04-15T08:45:55.790Z,4.45
2023-04-15T08:48:24.582Z,3.75
2023-04-15T08:50:51.842Z,4.05
2023-04-15T08:53:18.676Z,4.18
2023-04-15T08:55:46.706Z,4.23
2023-04-15T08:58:15.630Z,3.75
2023-04-15T09:00:42.366Z,4.03
2023-04-15T09:03:09.782Z,4.03
2023-04-15T09:05:37.117Z,3.75
2023-04-15T09:08:04.694Z,3.90
2023-04-15T09:10:32.804Z,4.03
2023-04-15T09:12:59.600Z,4.13
2023-04-15T09:15:27.570Z,4.22
2023-04-15T09:17:54.259Z,3.88
2023-04-15T09:20:21.014Z,3.50
2023-04-15T09:22:49.096Z,3.17
2023-04-15T09:25:15.826Z,3.20
2023-04-15T09:27:53.666Z,2.63
2023-04-15T09:30:20.540Z,2.80
2023-04-15T09:32:51.813Z,3.60
2023-04-15T09:35:19.903Z,3.30
2023-04-15T09:37:46.642Z,3.13
2023-04-15T09:40:13.586Z,4.07
2023-04-15T09:42:56.656Z,3.63
2023-04-15T09:45:25.664Z,4.00
2023-04-15T09:47:53.750Z,3.45
2023-04-15T09:50:20.804Z,4.05
2023-04-15T09:52:47.714Z,3.40
2023-04-15T09:55:16.131Z,3.90
2023-04-15T09:57:44.209Z,3.83
2023-04-15T10:00:11.461Z,4.20
2023-04-15T10:02:40.666Z,4.30
2023-04-15T10:05:09.320Z,4.22
2023-04-15T10:07:36.007Z,3.50
2023-04-15T10:10:04.391Z,4.07
2023-04-15T10:12:31.588Z,3.70
2023-04-15T10:15:05.010Z,4.05
2023-04-15T10:17:35.296Z,3.10
2023-04-15T10:20:04.730Z,3.17
2023-04-15T10:22:32.447Z,3.40
2023-04-15T10:25:02.194Z,3.80
2023-04-15T10:27:29.228Z,3.22
2023-04-15T10:29:57.217Z,3.55
2023-04-15T10:32:25.464Z,3.10
2023-04-15T10:34:54.650Z,3.03
2023-04-15T10:37:38.289Z,2.85
2023-04-15T10:40:24.429Z,2.92
2023-04-15T10:42:51.218Z,3.05
2023-04-15T10:45:18.778Z,2.80
2023-04-15T10:47:45.586Z,2.57
2023-04-15T10:50:12.600Z,3.13
2023-04-15T10:52:42.609Z,2.97
2023-04-15T10:55:14.059Z,2.83
2023-04-15T10:57:42.282Z,2.92
2023-04-15T11:00:09.079Z,2.73
2023-04-15T11:02:47.182Z,3.10
2023-04-15T11:05:15.570Z,3.22
2023-04-15T11:07:48.954Z,3.40
2023-04-15T11:10:18.733Z,3.30
2023-04-15T11:12:46.509Z,3.80
2023-04-15T11:15:35.099Z,3.17
2023-04-15T11:18:20.349Z,2.70
2023-04-15T11:20:47.910Z,2.50
2023-04-15T11:23:38.917Z,2.42
2023-04-15T11:26:09.731Z,2.10
2023-04-15T11:28:38.790Z,2.88
2023-04-15T11:31:17.560Z,2.40
2023-04-15T11:34:03.114Z,2.80
2023-04-15T11:36:31.889Z,2.75
2023-04-15T11:38:59.997Z,2.40
2023-04-15T11:41:26.635Z,2.72
2023-04-15T11:43:53.311Z,2.95
2023-04-15T11:46:21.408Z,2.63
2023-04-15T11:48:48.113Z,2.75
2023-04-15T11:51:15.010Z,2.77
2023-04-15T11:53:43.063Z,2.40
2023-04-15T11:56:11.557Z,3.30
2023-04-15T11:58:39.190Z,3.03
2023-04-15T12:01:07.348Z,2.72
2023-04-15T12:03:38.153Z,2.43
2023-04-15T12:06:07.758Z,2.83
2023-04-15T12:08:58.299Z,2.80
2023-04-15T12:11:30.800Z,2.13
2023-04-15T12:14:03.198Z,2.08
2023-04-15T12:16:30.524Z,2.40
2023-04-15T12:18:59.382Z,2.10
2023-04-15T12:21:28.047Z,2.00
2023-04-15T12:23:58.082Z,2.60
2023-04-15T12:26:34.838Z,2.00
2023-04-15T12:29:08.930Z,2.43
2023-04-15T12:31:39.210Z,2.40
2023-04-15T12:34:09.093Z,2.22
2023-04-15T12:36:38.413Z,2.03
2023-04-15T12:39:06.138Z,2.20
2023-04-15T12:41:33.597Z,2.30
2023-04-15T12:44:00.447Z,2.10
2023-04-15T12:46:27.288Z,2.47
2023-04-15T12:48:54.007Z,1.80
2023-04-15T12:51:23.744Z,1.85
2023-04-15T12:53:51.071Z,2.10
2023-04-15T12:56:18.089Z,2.13
2023-04-15T12:58:44.803Z,2.40
2023-04-15T13:01:11.652Z,2.17
2023-04-15T13:03:38.621Z,2.60
2023-04-15T13:06:05.931Z,1.70
2023-04-15T13:08:33.176Z,2.30
2023-04-15T13:11:00.326Z,2.03
2023-04-15T13:13:27.586Z,2.08
2023-04-15T13:15:54.332Z,2.28
2023-04-15T13:18:21.047Z,2.10
2023-04-15T13:20:47.681Z,2.13
2023-04-15T13:23:15.417Z,1.60
2023-04-15T13:25:42.362Z,2.00
2023-04-15T13:28:11.256Z,1.70
2023-04-15T13:30:38.703Z,2.03
2023-04-15T13:33:05.980Z,1.95
2023-04-15T13:35:32.919Z,1.73
2023-04-15T13:37:59.539Z,2.00
2023-04-15T13:40:26.125Z,2.03
2023-04-15T13:42:53.197Z,1.70
2023-04-15T13:45:19.955Z,2.10
2023-04-15T13:47:46.586Z,1.92
2023-04-15T13:50:13.209Z,1.88
2023-04-15T13:52:39.900Z,1.80
2023-04-15T13:55:19.517Z,1.97
2023-04-15T13:57:47.853Z,1.20
2023-04-15T14:00:14.785Z,2.08
2023-04-15T14:02:42.309Z,1.73
2023-04-15T14:05:10.381Z,1.60
2023-04-15T14:07:37.279Z,1.63
2023-04-15T14:10:04.345Z,1.65
2023-04-15T14:12:31.057Z,1.60
2023-04-15T14:14:57.723Z,1.60
2023-04-15T14:17:24.423Z,1.88
2023-04-15T14:19:51.605Z,1.60
2023-04-15T14:22:18.886Z,2.13
2023-04-15T14:24:45.815Z,1.52
2023-04-15T14:27:12.539Z,1.77
2023-04-15T14:29:39.192Z,2.08
2023-04-15T14:32:11.995Z,1.70
2023-04-15T14:34:40.116Z,1.48
2023-04-15T14:37:06.890Z,1.88
2023-04-15T14:39:33.560Z,1.77
2023-04-15T14:42:00.195Z,1.63
2023-04-15T14:44:26.821Z,1.53
2023-04-15T14:46:53.709Z,1.60
2023-04-15T14:49:20.892Z,1.52
2023-04-15T14:51:47.518Z,1.50
2023-04-15T14:54:14.132Z,1.77
2023-04-15T14:56:40.967Z,1.70
2023-04-15T14:59:07.573Z,1.35
2023-04-15T15:01:34.719Z,1.60
2023-04-15T15:04:01.580Z,1.73
2023-04-15T15:06:28.360Z,1.50
2023-04-15T15:08:54.958Z,1.90
2023-04-15T15:11:21.703Z,2.20
2023-04-15T15:13:48.371Z,1.83
2023-04-15T15:16:15.168Z,1.60
2023-04-15T15:18:41.852Z,1.83
2023-04-15T15:21:08.600Z,1.90
2023-04-15T15:23:35.374Z,1.90
2023-04-15T15:26:02.131Z,1.30
2023-04-15T15:28:28.815Z,1.30
2023-04-15T15:30:55.671Z,1.60
2023-04-15T15:33:22.488Z,1.63
2023-04-15T15:35:50.301Z,1.65
2023-04-15T15:38:17.049Z,1.50
2023-04-15T15:40:43.671Z,1.40
2023-04-15T15:43:10.308Z,1.40
2023-04-15T15:45:36.995Z,1.80
2023-04-15T15:48:04.687Z,1.38
2023-04-15T15:50:31.908Z,1.20
2023-04-15T15:52:58.722Z,1.48
2023-04-15T15:55:27.023Z,1.52
2023-04-15T15:57:54.340Z,1.40
2023-04-15T16:00:23.155Z,1.70
2023-04-15T16:03:06.167Z,1.70
2023-04-15T16:05:34.718Z,1.80
2023-04-15T16:08:01.738Z,1.92
2023-04-15T16:10:28.870Z,2.00
2023-04-15T16:12:55.823Z,2.03
2023-04-15T16:15:24.975Z,1.77
2023-04-15T16:17:51.896Z,1.75
2023-04-15T16:20:18.581Z,1.75
2023-04-15T16:22:45.238Z,1.90
2023-04-15T16:25:11.931Z,1.45
2023-04-15T16:30:09.083Z,1.48
2023-04-15T16:32:36.057Z,1.30
2023-04-15T16:35:03.476Z,1.43
2023-04-15T16:37:31.354Z,1.42
2023-04-15T16:39:57.943Z,1.30
2023-04-15T16:42:24.681Z,1.17
2023-04-15T16:44:51.304Z,1.88
2023-04-15T16:47:17.930Z,1.20
2023-04-15T16:49:44.560Z,1.50
2023-04-15T16:52:11.257Z,1.80
2023-04-15T16:54:41.126Z,1.40
2023-04-15T16:57:08.760Z,1.60
2023-04-15T16:59:35.606Z,1.50
2023-04-15T17:02:02.345Z,1.42
2023-04-15T17:04:29.239Z,1.33
2023-04-15T17:06:56.009Z,1.45
2023-04-15T17:09:22.573Z,1.67
2023-04-15T17:11:49.268Z,1.63
2023-04-15T17:14:15.903Z,1.20
2023-04-15T17:16:43.209Z,1.40
2023-04-15T17:19:09.865Z,1.52
2023-04-15T17:21:36.573Z,1.67
2023-04-15T17:24:03.304Z,1.70
2023-04-15T17:26:29.959Z,1.50
2023-04-15T17:28:56.559Z,1.55
2023-04-15T17:31:23.261Z,1.63
2023-04-15T17:33:58.789Z,1.17
2023-04-15T17:36:36.380Z,1.30
2023-04-15T17:39:03.692Z,1.60
2023-04-15T17:41:30.580Z,1.70
2023-04-15T17:43:57.176Z,1.65
2023-04-15T17:46:23.935Z,1.40
2023-04-15T17:48:50.578Z,1.57
2023-04-15T17:51:17.339Z,1.92
2023-04-15T17:53:43.997Z,2.22
2023-04-15T17:56:10.999Z,1.20
2023-04-15T17:58:39.166Z,1.60
2023-04-15T18:01:06.552Z,2.00
2023-04-15T18:03:33.318Z,1.75
2023-04-15T18:06:01.193Z,1.52
2023-04-15T18:08:28.954Z,1.50
2023-04-15T18:10:56.356Z,2.28
2023-04-15T18:13:23.533Z,1.60
2023-04-15T18:15:51.298Z,1.55
2023-04-15T18:18:18.136Z,1.52
2023-04-15T18:20:44.795Z,1.80
2023-04-15T18:23:11.471Z,1.75
2023-04-15T18:25:38.295Z,1.53
2023-04-15T18:28:05.550Z,1.48
2023-04-15T18:30:32.300Z,1.50
2023-04-15T18:32:58.992Z,1.30
2023-04-15T18:35:25.715Z,1.23
2023-04-15T18:37:52.850Z,1.30
2023-04-15T18:40:19.810Z,1.30
2023-04-15T18:42:46.456Z,1.05
2023-04-15T18:45:13.146Z,1.13
2023-04-15T18:47:39.879Z,1.88
2023-04-15T18:50:08.115Z,1.10
2023-04-15T18:52:34.813Z,1.30
2023-04-15T18:55:03.284Z,1.20
2023-04-15T18:57:34.963Z,1.00
2023-04-15T19:00:02.320Z,1.27
2023-04-15T19:02:29.017Z,1.60
2023-04-15T19:04:55.887Z,1.08
2023-04-15T19:07:23.106Z,2.05
2023-04-15T19:09:49.821Z,1.98
2023-04-15T19:12:16.512Z,1.38
2023-04-15T19:14:43.130Z,1.37
2023-04-15T19:17:09.730Z,2.15
2023-04-15T19:19:36.983Z,1.35
2023-04-15T19:22:03.618Z,1.55
2023-04-15T19:24:33.365Z,1.40
2023-04-15T19:27:00.145Z,1.60
2023-04-15T19:29:28.654Z,1.65
2023-04-15T19:31:55.964Z,1.30
2023-04-15T19:34:22.575Z,1.30
2023-04-15T19:36:49.278Z,1.75
2023-04-15T19:39:16.132Z,1.30
2023-04-15T19:41:44.258Z,1.30
2023-04-15T19:44:14.158Z,1.45
2023-04-15T19:46:43.478Z,1.50
2023-04-15T19:49:10.684Z,1.45
2023-04-15T19:51:37.254Z,1.50
2023-04-15T19:54:03.939Z,1.40
2023-04-15T19:56:32.834Z,1.38
2023-04-15T19:59:01.961Z,1.20
2023-04-15T20:01:28.904Z,1.40
2023-04-15T20:03:55.659Z,1.60
2023-04-15T20:06:22.695Z,1.75
2023-04-15T20:08:49.522Z,1.60
2023-04-15T20:11:16.182Z,1.45
2023-04-15T20:13:42.739Z,1.77
2023-04-15T20:16:09.560Z,1.67
2023-04-15T20:18:36.320Z,1.77
2023-04-15T20:21:02.941Z,1.80
2023-04-15T20:23:29.556Z,1.40
2023-04-15T20:25:56.596Z,1.33
2023-04-15T20:28:25.996Z,1.80
2023-04-15T20:30:53.638Z,1.88
2023-04-15T20:33:22.008Z,2.50
2023-04-15T20:35:48.700Z,1.90
2023-04-15T20:38:16.184Z,2.03
2023-04-15T20:40:43.278Z,1.90
2023-04-15T20:43:10.037Z,2.10
2023-04-15T20:45:37.181Z,1.70
2023-04-15T20:48:04.298Z,1.65
2023-04-15T20:50:31.120Z,1.60
2023-04-15T20:52:57.769Z,2.00
2023-04-15T20:55:25.062Z,1.85
2023-04-15T20:57:52.340Z,1.95
2023-04-15T21:00:18.998Z,2.13
2023-04-15T21:02:45.882Z,1.80
2023-04-15T21:05:12.612Z,1.70
2023-04-15T21:07:39.203Z,2.25
2023-04-15T21:10:08.850Z,2.25
2023-04-15T21:12:40.703Z,1.30
2023-04-15T21:15:08.450Z,1.60
2023-04-15T21:17:35.480Z,1.80
2023-04-15T21:20:02.335Z,1.95
2023-04-15T21:22:28.902Z,1.58
2023-04-15T21:24:55.658Z,1.70
2023-04-15T21:27:22.270Z,1.45
2023-04-15T21:29:48.888Z,1.90
2023-04-15T21:32:15.785Z,1.63
2023-04-15T21:34:42.606Z,1.65
2023-04-15T21:37:09.217Z,1.42
2023-04-15T21:39:35.905Z,1.70
2023-04-15T21:42:02.840Z,1.50
2023-04-15T21:44:29.489Z,1.95
2023-04-15T21:46:56.486Z,1.50
2023-04-15T21:49:24.946Z,1.67
2023-04-15T21:51:52.039Z,1.50
2023-04-15T21:54:18.748Z,1.53
2023-04-15T21:56:46.039Z,1.70
2023-04-15T21:59:12.627Z,1.42
2023-04-15T22:01:39.301Z,1.70
2023-04-15T22:04:07.475Z,1.98
2023-04-15T22:06:34.351Z,1.67
2023-04-15T22:09:00.980Z,1.98
2023-04-15T22:11:28.211Z,1.70
2023-04-15T22:13:56.658Z,1.45
2023-04-15T22:16:24.713Z,2.55
2023-04-15T22:18:51.387Z,2.03
2023-04-15T22:21:18.244Z,1.63
2023-04-15T22:23:49.060Z,1.95
2023-04-15T22:26:15.744Z,1.88
2023-04-15T22:28:42.619Z,1.90
2023-04-15T22:31:09.819Z,2.30
2023-04-15T22:33:36.507Z,2.00
2023-04-15T22:36:03.241Z,2.20
2023-04-15T22:38:29.929Z,1.90
2023-04-15T22:40:56.554Z,2.53
2023-04-15T22:43:23.217Z,1.97
2023-04-15T22:45:50.689Z,1.77
2023-04-15T22:48:18.456Z,2.30
2023-04-15T22:50:45.186Z,2.35
2023-04-15T22:53:11.844Z,2.13
2023-04-15T22:55:38.436Z,2.40
2023-04-15T22:58:05.109Z,2.85
2023-04-15T23:00:31.728Z,2.22
2023-04-15T23:02:58.472Z,2.47
2023-04-15T23:05:25.305Z,2.42
2023-04-15T23:07:51.991Z,2.50
2023-04-15T23:10:18.709Z,3.00
2023-04-15T23:12:45.467Z,2.42
2023-04-15T23:15:12.110Z,2.28
2023-04-15T23:17:38.922Z,2.45
2023-04-15T23:20:06.391Z,2.30
2023-04-15T23:22:37.311Z,2.40
2023-04-15T23:25:05.495Z,2.70
2023-04-15T23:27:32.239Z,2.33
2023-04-15T23:29:58.857Z,2.50
2023-04-15T23:32:26.468Z,2.67
2023-04-15T23:34:53.489Z,2.65
2023-04-15T23:37:20.149Z,2.47
2023-04-15T23:39:46.876Z,3.00
2023-04-15T23:42:13.492Z,2.63
2023-04-15T23:44:40.183Z,2.70
2023-04-15T23:47:06.967Z,2.80
2023-04-15T23:49:33.852Z,2.67
2023-04-15T23:52:00.541Z,2.40
2023-04-15T23:54:27.210Z,2.13
2023-04-15T23:56:53.832Z,2.70
2023-04-15T23:59:20.556Z,2.35
